Time;durP1;ratioP1;P1;durP2;ratioP2;P2;SDS_P1;SDS_P2;PMS_P1;PMS_P2;Temp;Humidity;BMP_temperature;BMP_pressure;BME280_temperature;BME280_humidity;BME280_pressure;Samples;Min_cycle;Max_cycle;Signal;HPM_P1;HPM_P2
2023/05/09 00:01:16;;;;;;;35.92;23.38;;;17.20;99.90;;;;;;5082260;28;20871;-35
2023/05/09 00:03:42;;;;;;;36.67;23.33;;;17.30;99.90;;;;;;5083477;28;20135;-34
2023/05/09 00:06:08;;;;;;;37.42;24.00;;;17.30;99.90;;;;;;5082278;28;20090;-33
2023/05/09 00:08:34;;;;;;;38.75;24.58;;;17.40;99.90;;;;;;5082051;28;20067;-34
2023/05/09 00:11:01;;;;;;;36.35;23.23;;;17.40;99.90;;;;;;5083048;28;20095;-34
2023/05/09 00:13:27;;;;;;;38.53;24.52;;;17.40;99.90;;;;;;5082071;28;20054;-35
2023/05/09 00:15:52;;;;;;;40.05;24.58;;;17.40;99.90;;;;;;5082909;28;20027;-35
2023/05/09 00:18:22;;;;;;;36.72;24.00;;;17.40;99.90;;;;;;5083142;28;20024;-34
2023/05/09 00:20:48;;;;;;;38.38;24.45;;;17.40;99.90;;;;;;5082553;28;20024;-35
2023/05/09 00:23:15;;;;;;;36.80;23.98;;;17.40;99.90;;;;;;5083238;28;20016;-34
2023/05/09 00:25:41;;;;;;;35.70;23.17;;;17.40;99.90;;;;;;5083558;28;20038;-35
2023/05/09 00:28:06;;;;;;;35.95;22.83;;;17.40;99.90;;;;;;5081810;28;20040;-34
2023/05/09 00:30:32;;;;;;;37.08;23.70;;;17.40;99.90;;;;;;5083058;28;20030;-35
2023/05/09 00:32:57;;;;;;;39.83;23.90;;;17.40;99.90;;;;;;5082494;28;20032;-35
2023/05/09 00:35:23;;;;;;;38.33;23.92;;;17.40;99.90;;;;;;5081297;28;20039;-36
2023/05/09 00:37:48;;;;;;;33.85;22.52;;;17.40;99.90;;;;;;5081333;28;20101;-34
2023/05/09 00:40:14;;;;;;;37.05;23.58;;;17.40;99.90;;;;;;5082309;28;20039;-35
2023/05/09 00:42:40;;;;;;;36.83;24.20;;;17.40;99.90;;;;;;5080871;28;20280;-34
2023/05/09 00:45:06;;;;;;;35.00;22.58;;;17.40;99.90;;;;;;5082245;28;20432;-35
2023/05/09 00:47:32;;;;;;;35.80;22.77;;;17.40;99.90;;;;;;5081761;28;20032;-36
2023/05/09 00:49:58;;;;;;;38.67;23.60;;;17.40;99.90;;;;;;5081878;28;20816;-35
2023/05/09 00:52:25;;;;;;;35.78;22.67;;;17.40;99.90;;;;;;5081213;28;20052;-34
2023/05/09 00:54:54;;;;;;;32.45;21.48;;;17.40;99.90;;;;;;5082198;28;20016;-34
2023/05/09 00:57:21;;;;;;;35.80;22.23;;;17.40;99.90;;;;;;5081832;28;20012;-36
2023/05/09 00:59:47;;;;;;;31.20;20.73;;;17.40;99.90;;;;;;5082158;28;20462;-35
2023/05/09 01:02:14;;;;;;;36.55;22.65;;;17.40;99.90;;;;;;5081254;28;20039;-35
2023/05/09 01:04:40;;;;;;;33.83;22.02;;;17.40;99.90;;;;;;5077770;28;20852;-34
2023/05/09 01:07:11;;;;;;;37.58;23.42;;;17.40;99.90;;;;;;5080748;28;20040;-35
2023/05/09 01:10:03;;;;;;;35.30;23.17;;;17.40;99.90;;;;;;5080098;28;20020;-34
2023/05/09 01:13:08;;;;;;;36.03;23.73;;;17.40;99.90;;;;;;5081198;28;20072;-36
2023/05/09 01:16:00;;;;;;;36.00;22.55;;;17.40;99.90;;;;;;5070775;28;20043;-35
2023/05/09 01:18:42;;;;;;;33.97;22.80;;;17.40;99.90;;;;;;5067664;28;20043;-34
2023/05/09 01:21:13;;;;;;;36.90;22.77;;;17.50;99.90;;;;;;5081889;28;20024;-34
2023/05/09 01:23:45;;;;;;;33.97;22.20;;;17.50;99.90;;;;;;5080356;28;20904;-36
2023/05/09 01:26:29;;;;;;;33.80;22.08;;;17.50;99.90;;;;;;5081530;28;20036;-35
2023/05/09 01:29:35;;;;;;;35.40;22.85;;;17.40;99.90;;;;;;5081854;28;20041;-34
2023/05/09 01:32:05;;;;;;;34.90;22.45;;;17.40;99.90;;;;;;5080927;28;20047;-34
2023/05/09 01:34:31;;;;;;;35.67;22.17;;;17.40;99.90;;;;;;5080963;28;20050;-35
2023/05/09 01:36:59;;;;;;;34.92;22.83;;;17.30;99.90;;;;;;5081471;28;20203;-35
2023/05/09 01:39:27;;;;;;;35.15;22.42;;;17.40;99.90;;;;;;5079892;28;20060;-35
2023/05/09 01:41:55;;;;;;;35.65;22.67;;;17.30;99.90;;;;;;5081520;28;20032;-35
2023/05/09 01:44:22;;;;;;;39.38;23.15;;;17.30;99.90;;;;;;5080177;28;20036;-35
2023/05/09 01:46:49;;;;;;;34.35;21.70;;;17.30;99.90;;;;;;5081753;28;20062;-34
2023/05/09 01:49:17;;;;;;;34.65;23.05;;;17.30;99.90;;;;;;5080851;28;20016;-35
2023/05/09 01:51:44;;;;;;;34.25;22.08;;;17.30;99.90;;;;;;5079858;28;20082;-35
2023/05/09 01:54:11;;;;;;;34.53;22.30;;;17.30;99.90;;;;;;5081091;28;20019;-35
2023/05/09 01:56:39;;;;;;;34.20;22.05;;;17.30;99.90;;;;;;5080377;28;20081;-34
2023/05/09 01:59:06;;;;;;;35.70;22.27;;;17.30;99.90;;;;;;5080741;28;20028;-34
2023/05/09 02:01:33;;;;;;;33.53;22.67;;;17.30;99.90;;;;;;5080948;28;20070;-35
2023/05/09 02:03:59;;;;;;;34.05;22.30;;;17.40;99.90;;;;;;5080810;28;20066;-35
2023/05/09 02:06:28;;;;;;;39.38;24.15;;;17.40;99.90;;;;;;5079701;28;20016;-36
2023/05/09 02:08:54;;;;;;;36.45;22.88;;;17.40;99.90;;;;;;5081137;28;20128;-35
2023/05/09 02:11:20;;;;;;;33.97;22.08;;;17.40;99.90;;;;;;5079986;28;20032;-35
2023/05/09 02:13:45;;;;;;;38.63;24.00;;;17.30;99.90;;;;;;5079776;28;20581;-34
2023/05/09 02:16:11;;;;;;;37.80;23.40;;;17.30;99.90;;;;;;5080398;28;20020;-35
2023/05/09 02:18:37;;;;;;;34.33;23.20;;;17.30;99.90;;;;;;5080796;28;20037;-35
2023/05/09 02:21:03;;;;;;;35.00;22.33;;;17.30;99.90;;;;;;5079412;28;20051;-35
2023/05/09 02:23:29;;;;;;;33.70;22.35;;;17.20;99.90;;;;;;5079950;28;20144;-34
2023/05/09 02:25:54;;;;;;;34.67;22.88;;;17.20;99.90;;;;;;5080756;28;20085;-35
2023/05/09 02:28:22;;;;;;;34.08;21.88;;;17.20;99.90;;;;;;5079340;28;20028;-35
2023/05/09 02:30:50;;;;;;;33.15;22.33;;;17.10;99.90;;;;;;5080898;28;20039;-36
2023/05/09 02:33:16;;;;;;;34.72;23.23;;;17.10;99.90;;;;;;5080562;28;20115;-35
2023/05/09 02:35:45;;;;;;;34.25;22.48;;;17.10;99.90;;;;;;5079665;28;20887;-35
2023/05/09 02:38:14;;;;;;;33.17;21.58;;;17.00;99.90;;;;;;5080896;28;20104;-34
2023/05/09 02:40:45;;;;;;;34.60;22.88;;;17.00;99.90;;;;;;5079478;28;20035;-34
2023/05/09 02:43:11;;;;;;;32.53;21.13;;;17.00;99.90;;;;;;5081497;28;20127;-35
2023/05/09 02:45:37;;;;;;;32.50;20.60;;;16.90;99.90;;;;;;5080380;28;20539;-35
2023/05/09 02:48:03;;;;;;;34.60;21.60;;;16.90;99.90;;;;;;5079946;28;20040;-36
2023/05/09 02:50:28;;;;;;;36.78;22.63;;;16.90;99.90;;;;;;5080788;28;20858;-37
2023/05/09 02:52:54;;;;;;;37.67;23.02;;;16.90;99.90;;;;;;5080172;28;20051;-35
2023/05/09 02:55:19;;;;;;;37.67;24.13;;;16.90;99.90;;;;;;5080277;28;20024;-36
2023/05/09 02:57:48;;;;;;;42.03;24.92;;;16.80;99.90;;;;;;5080400;28;20036;-35
2023/05/09 03:00:14;;;;;;;39.15;25.02;;;16.90;99.90;;;;;;5080226;28;20093;-35
2023/05/09 03:02:40;;;;;;;38.85;23.98;;;16.90;99.90;;;;;;5082698;28;20031;-35
2023/05/09 03:05:06;;;;;;;36.40;23.52;;;16.90;99.90;;;;;;5084552;28;20020;-36
2023/05/09 03:07:31;;;;;;;35.92;23.48;;;16.90;99.90;;;;;;5083872;28;20032;-37
2023/05/09 03:09:57;;;;;;;39.70;24.83;;;16.90;99.90;;;;;;5083701;28;20034;-37
2023/05/09 03:12:22;;;;;;;42.67;26.13;;;16.90;99.90;;;;;;5083618;28;20020;-35
2023/05/09 03:14:48;;;;;;;40.10;25.48;;;16.80;99.90;;;;;;5084215;28;20024;-35
2023/05/09 03:17:16;;;;;;;40.80;25.85;;;16.90;99.90;;;;;;5083602;28;20065;-37
2023/05/09 03:19:41;;;;;;;43.03;26.88;;;16.90;99.90;;;;;;5084111;28;20452;-34
2023/05/09 03:22:07;;;;;;;40.60;25.33;;;16.80;99.90;;;;;;5084246;28;20116;-35
2023/05/09 03:24:33;;;;;;;40.58;25.60;;;16.80;99.90;;;;;;5082877;28;20027;-35
2023/05/09 03:26:58;;;;;;;44.45;26.95;;;16.80;99.90;;;;;;5084409;28;20158;-35
2023/05/09 03:29:24;;;;;;;41.80;25.70;;;16.80;99.90;;;;;;5083810;28;20020;-34
2023/05/09 03:31:50;;;;;;;37.55;23.25;;;16.80;99.90;;;;;;5084072;28;20028;-34
2023/05/09 03:34:16;;;;;;;38.70;23.90;;;16.80;99.90;;;;;;5083889;28;20186;-36
2023/05/09 03:36:42;;;;;;;37.58;23.13;;;16.80;99.90;;;;;;5083451;28;20106;-36
2023/05/09 03:39:08;;;;;;;36.88;23.85;;;16.80;99.90;;;;;;5083435;28;20135;-35
2023/05/09 03:41:35;;;;;;;38.70;23.17;;;16.80;99.90;;;;;;5083752;28;20463;-35
2023/05/09 03:44:01;;;;;;;36.05;23.40;;;16.80;99.90;;;;;;5082738;28;20189;-34
2023/05/09 03:46:27;;;;;;;38.03;23.17;;;16.80;99.90;;;;;;5083548;28;20073;-35
2023/05/09 03:48:52;;;;;;;36.30;22.90;;;16.90;99.90;;;;;;5083385;28;20028;-36
2023/05/09 03:51:18;;;;;;;32.20;20.40;;;16.80;99.90;;;;;;5082788;28;20024;-36
2023/05/09 03:53:46;;;;;;;34.90;21.63;;;16.90;99.90;;;;;;5082783;28;20680;-36
2023/05/09 03:56:12;;;;;;;34.67;21.45;;;16.80;99.90;;;;;;5083685;28;20115;-35
2023/05/09 03:58:38;;;;;;;32.88;20.95;;;16.80;99.90;;;;;;5082286;28;20020;-36
2023/05/09 04:01:04;;;;;;;30.20;20.00;;;16.80;99.90;;;;;;5083803;28;20052;-36
2023/05/09 04:03:30;;;;;;;30.00;19.70;;;16.80;99.90;;;;;;5083212;28;20092;-35
2023/05/09 04:05:56;;;;;;;31.13;20.92;;;16.80;99.90;;;;;;5082665;28;20039;-36
2023/05/09 04:08:22;;;;;;;29.83;18.98;;;16.70;99.90;;;;;;5083283;28;20024;-36
2023/05/09 04:10:48;;;;;;;29.92;19.65;;;16.70;99.90;;;;;;5082978;28;20023;-35
2023/05/09 04:13:14;;;;;;;29.25;19.70;;;16.70;99.90;;;;;;5081426;28;20036;-34
2023/05/09 04:15:39;;;;;;;32.97;21.02;;;16.70;99.90;;;;;;5082133;28;20447;-35
2023/05/09 04:18:05;;;;;;;30.30;19.73;;;16.70;99.90;;;;;;5083155;28;20441;-35
2023/05/09 04:20:31;;;;;;;32.58;19.15;;;16.70;99.90;;;;;;5081853;28;20020;-35
2023/05/09 04:22:57;;;;;;;32.30;20.33;;;16.70;99.90;;;;;;5083256;28;20118;-34
2023/05/09 04:25:23;;;;;;;29.55;19.30;;;16.70;99.90;;;;;;5082213;28;20533;-34
2023/05/09 04:27:48;;;;;;;32.13;20.85;;;16.70;99.90;;;;;;5083120;28;20028;-35
2023/05/09 04:30:14;;;;;;;28.17;19.38;;;16.70;99.90;;;;;;5082716;28;20024;-35
2023/05/09 04:32:49;;;;;;;28.92;19.75;;;16.70;99.90;;;;;;5082823;28;20482;-36
2023/05/09 04:35:14;;;;;;;29.95;19.42;;;16.70;99.90;;;;;;5081566;28;20335;-35
2023/05/09 04:37:40;;;;;;;30.67;20.45;;;16.70;99.90;;;;;;5082299;28;20751;-35
2023/05/09 04:40:08;;;;;;;27.92;18.75;;;16.70;99.90;;;;;;5081976;28;20024;-35
2023/05/09 04:42:36;;;;;;;27.42;18.88;;;16.60;99.90;;;;;;5081628;28;20073;-36
2023/05/09 04:45:02;;;;;;;28.17;18.83;;;16.60;99.90;;;;;;5082104;28;20123;-34
2023/05/09 04:47:27;;;;;;;25.60;17.67;;;16.60;99.90;;;;;;5081380;28;20028;-35
2023/05/09 04:49:53;;;;;;;26.98;18.27;;;16.60;99.90;;;;;;5082297;28;20105;-34
2023/05/09 04:52:18;;;;;;;25.88;16.70;;;16.70;99.90;;;;;;5081732;28;20793;-35
2023/05/09 04:54:44;;;;;;;26.45;18.08;;;16.70;99.90;;;;;;5082219;28;20365;-36
2023/05/09 04:57:10;;;;;;;23.98;17.00;;;16.70;99.90;;;;;;5082052;28;20913;-35
2023/05/09 04:59:36;;;;;;;25.92;17.17;;;16.70;99.90;;;;;;5081268;28;20080;-36
2023/05/09 05:02:02;;;;;;;23.20;16.50;;;16.70;99.90;;;;;;5081915;28;20035;-35
2023/05/09 05:04:27;;;;;;;21.85;15.50;;;16.70;99.90;;;;;;5081633;28;20035;-34
2023/05/09 05:06:53;;;;;;;25.73;16.88;;;16.70;99.90;;;;;;5082282;28;20111;-37
2023/05/09 05:09:22;;;;;;;23.75;17.17;;;16.70;99.90;;;;;;5081130;28;20032;-36
2023/05/09 05:11:47;;;;;;;24.83;17.25;;;16.80;99.90;;;;;;5081244;28;20020;-37
2023/05/09 05:14:13;;;;;;;24.15;16.02;;;16.80;99.90;;;;;;5081665;28;20044;-35
2023/05/09 05:16:38;;;;;;;22.98;16.10;;;16.80;99.90;;;;;;5080890;28;20031;-35
2023/05/09 05:19:04;;;;;;;25.17;17.65;;;16.90;99.90;;;;;;5082474;28;20027;-35
2023/05/09 05:21:29;;;;;;;25.58;17.67;;;16.90;99.90;;;;;;5081749;28;20066;-36
2023/05/09 05:23:55;;;;;;;27.20;17.05;;;16.90;99.90;;;;;;5081527;28;20105;-37
2023/05/09 05:26:20;;;;;;;23.80;17.35;;;16.90;99.90;;;;;;5081457;28;20028;-35
2023/05/09 05:28:46;;;;;;;24.33;17.17;;;16.90;99.90;;;;;;5081405;28;20369;-35
2023/05/09 05:31:12;;;;;;;25.85;17.65;;;16.90;99.90;;;;;;5085208;28;20483;-35
2023/05/09 05:33:37;;;;;;;23.60;15.68;;;17.00;99.90;;;;;;5082133;28;20036;-36
2023/05/09 05:36:03;;;;;;;24.17;15.88;;;17.10;99.90;;;;;;5081661;28;20131;-36
2023/05/09 05:38:29;;;;;;;19.52;14.65;;;17.20;99.90;;;;;;5077203;28;20028;-36
2023/05/09 05:40:55;;;;;;;21.20;15.07;;;17.20;99.90;;;;;;5080550;28;20414;-35
2023/05/09 05:43:20;;;;;;;22.35;15.45;;;17.30;99.90;;;;;;5078842;28;20487;-35
2023/05/09 05:45:46;;;;;;;22.95;15.23;;;17.40;99.90;;;;;;5079865;28;20024;-35
2023/05/09 05:48:11;;;;;;;22.10;16.20;;;17.40;99.90;;;;;;5080622;28;20032;-37
2023/05/09 05:50:37;;;;;;;21.23;15.20;;;17.50;99.90;;;;;;5079781;28;20133;-36
2023/05/09 05:53:03;;;;;;;21.15;15.27;;;17.50;99.90;;;;;;5080236;28;20075;-35
2023/05/09 05:55:29;;;;;;;20.95;15.32;;;17.50;99.90;;;;;;5080026;28;20885;-34
2023/05/09 05:57:55;;;;;;;22.27;16.15;;;17.50;99.90;;;;;;5080285;28;20016;-35
2023/05/09 06:00:20;;;;;;;20.60;15.77;;;17.50;99.90;;;;;;5080635;28;20016;-36
2023/05/09 06:02:49;;;;;;;22.65;15.73;;;17.40;99.90;;;;;;5080490;28;20024;-35
2023/05/09 06:05:14;;;;;;;20.35;15.82;;;17.50;99.90;;;;;;5080484;28;20466;-36
2023/05/09 06:07:40;;;;;;;21.90;16.25;;;17.50;99.90;;;;;;5079452;28;20020;-36
2023/05/09 06:10:07;;;;;;;22.65;16.02;;;17.50;99.90;;;;;;5080298;28;20128;-35
2023/05/09 06:12:33;;;;;;;21.73;16.08;;;17.50;99.90;;;;;;5078935;28;20039;-35
2023/05/09 06:14:58;;;;;;;20.15;15.30;;;17.60;99.90;;;;;;5079145;28;20024;-36
2023/05/09 06:17:24;;;;;;;19.70;14.88;;;17.60;99.90;;;;;;5078965;28;20118;-37
2023/05/09 06:19:50;;;;;;;19.67;14.73;;;17.60;99.90;;;;;;5079132;28;20791;-35
2023/05/09 06:22:15;;;;;;;20.13;14.35;;;17.60;99.90;;;;;;5079826;28;20104;-36
2023/05/09 06:24:41;;;;;;;19.70;13.32;;;17.70;99.90;;;;;;5079870;28;20053;-36
2023/05/09 06:27:06;;;;;;;18.85;13.60;;;17.70;99.90;;;;;;5079296;28;20024;-36
2023/05/09 06:29:32;;;;;;;19.65;14.23;;;17.70;99.90;;;;;;5078726;28;20047;-34
2023/05/09 06:31:57;;;;;;;15.80;11.27;;;17.70;99.90;;;;;;5079939;28;20147;-37
2023/05/09 06:34:23;;;;;;;17.73;12.68;;;17.70;99.90;;;;;;5079030;28;20107;-35
2023/05/09 06:36:48;;;;;;;17.27;13.23;;;17.80;99.90;;;;;;5082781;28;20066;-34
2023/05/09 06:39:14;;;;;;;16.05;12.70;;;17.90;99.90;;;;;;5084583;28;20028;-36
2023/05/09 06:41:39;;;;;;;14.43;11.27;;;17.90;99.90;;;;;;5083393;28;20107;-36
2023/05/09 06:44:11;;;;;;;15.07;11.48;;;18.00;99.90;;;;;;5084321;28;20052;-35
2023/05/09 06:46:37;;;;;;;13.70;10.40;;;18.20;99.90;;;;;;5072375;28;20024;-36
2023/05/09 06:49:02;;;;;;;13.40;11.02;;;18.20;99.90;;;;;;5084844;28;20649;-37
2023/05/09 06:51:28;;;;;;;14.20;11.30;;;18.40;99.90;;;;;;5084026;28;20024;-36
2023/05/09 06:53:53;;;;;;;11.68;9.73;;;18.50;99.90;;;;;;5083665;28;20075;-36
2023/05/09 06:56:21;;;;;;;15.65;10.73;;;18.60;99.90;;;;;;5083270;28;20036;-36
2023/05/09 06:58:47;;;;;;;10.95;9.70;;;18.70;99.90;;;;;;5084653;28;20046;-34
2023/05/09 07:01:13;;;;;;;11.27;9.95;;;18.80;99.90;;;;;;5082968;28;20020;-36
2023/05/09 07:03:38;;;;;;;10.07;8.95;;;18.90;99.90;;;;;;5084203;28;20490;-35
2023/05/09 07:06:04;;;;;;;10.95;9.50;;;18.90;99.90;;;;;;5084025;28;20032;-36
2023/05/09 07:08:29;;;;;;;14.07;10.52;;;18.90;99.90;;;;;;5082510;28;20059;-36
2023/05/09 07:10:55;;;;;;;11.43;10.00;;;18.90;99.90;;;;;;5083613;28;20088;-35
2023/05/09 07:13:21;;;;;;;11.57;9.40;;;19.00;99.90;;;;;;5083149;28;20123;-36
2023/05/09 07:15:46;;;;;;;13.65;9.27;;;18.90;99.90;;;;;;5082768;28;20020;-35
2023/05/09 07:18:12;;;;;;;11.07;8.82;;;18.90;99.90;;;;;;5084616;28;20024;-35
2023/05/09 07:20:37;;;;;;;10.55;8.57;;;18.80;99.90;;;;;;5083469;28;20060;-35
2023/05/09 07:23:03;;;;;;;12.43;10.55;;;18.70;99.90;;;;;;5083477;28;20131;-35
2023/05/09 07:25:29;;;;;;;13.30;10.40;;;18.70;99.90;;;;;;5083794;28;20103;-36
2023/05/09 07:27:54;;;;;;;9.02;8.13;;;18.70;99.90;;;;;;5072506;28;20368;-36
2023/05/09 07:30:20;;;;;;;10.27;9.02;;;18.70;99.90;;;;;;5082784;28;20455;-36
2023/05/09 07:32:46;;;;;;;13.80;10.43;;;18.70;99.90;;;;;;5083329;28;20039;-34
2023/05/09 07:35:11;;;;;;;10.75;9.57;;;18.70;99.90;;;;;;5083656;28;20023;-36
2023/05/09 07:37:37;;;;;;;13.85;10.25;;;18.70;99.90;;;;;;5081577;28;20107;-35
2023/05/09 07:40:04;;;;;;;10.07;8.43;;;18.70;99.90;;;;;;5083658;28;20035;-35
2023/05/09 07:42:31;;;;;;;10.98;9.02;;;18.80;99.90;;;;;;5082015;28;20403;-34
2023/05/09 07:44:58;;;;;;;9.95;8.82;;;18.80;99.90;;;;;;5082844;28;20035;-35
2023/05/09 07:47:23;;;;;;;10.32;8.02;;;18.80;99.90;;;;;;5081829;28;20233;-36
2023/05/09 07:49:49;;;;;;;12.07;9.20;;;18.90;99.90;;;;;;5083630;28;20420;-36
2023/05/09 07:52:16;;;;;;;10.45;8.55;;;18.90;99.90;;;;;;5082797;28;20056;-36
2023/05/09 07:54:42;;;;;;;13.20;9.32;;;19.00;99.90;;;;;;5083030;28;20020;-36
2023/05/09 07:57:07;;;;;;;11.13;10.02;;;19.00;99.90;;;;;;5082332;28;20403;-36
2023/05/09 07:59:33;;;;;;;12.30;10.05;;;19.10;99.90;;;;;;5082617;28;20073;-35
2023/05/09 08:01:58;;;;;;;9.90;8.50;;;19.10;99.90;;;;;;5083567;28;20028;-35
2023/05/09 08:04:24;;;;;;;11.60;9.50;;;19.20;99.90;;;;;;5081738;28;20085;-36
2023/05/09 08:06:50;;;;;;;10.10;9.00;;;19.10;99.90;;;;;;5083064;28;20031;-35
2023/05/09 08:09:17;;;;;;;8.68;7.30;;;19.10;99.90;;;;;;5083236;28;20019;-36
2023/05/09 08:11:43;;;;;;;11.73;9.10;;;19.10;99.90;;;;;;5082517;28;20030;-35
2023/05/09 08:14:08;;;;;;;10.50;9.18;;;19.10;99.90;;;;;;5082714;28;20036;-36
2023/05/09 08:16:34;;;;;;;10.50;9.30;;;19.10;99.90;;;;;;5082661;28;20753;-34
2023/05/09 08:18:59;;;;;;;9.80;8.80;;;19.10;99.90;;;;;;5081954;28;20371;-35
2023/05/09 08:21:25;;;;;;;11.27;8.77;;;19.10;99.90;;;;;;5081568;28;20903;-35
2023/05/09 08:23:51;;;;;;;9.63;8.15;;;19.10;99.90;;;;;;5081739;28;20541;-34
2023/05/09 08:26:17;;;;;;;12.48;9.68;;;19.10;99.90;;;;;;5081963;28;20516;-36
2023/05/09 08:28:42;;;;;;;12.75;9.52;;;19.10;99.90;;;;;;5081766;28;20603;-35
2023/05/09 08:31:08;;;;;;;9.35;8.45;;;19.00;99.90;;;;;;5080976;28;20023;-34
2023/05/09 08:33:34;;;;;;;10.15;8.38;;;19.00;99.90;;;;;;5080806;28;20039;-34
2023/05/09 08:35:59;;;;;;;9.40;8.43;;;18.90;99.90;;;;;;5082832;28;20028;-37
2023/05/09 08:38:25;;;;;;;11.77;9.68;;;18.90;99.90;;;;;;5081834;28;20023;-35
2023/05/09 08:40:50;;;;;;;11.50;9.98;;;18.90;99.90;;;;;;5082004;28;20024;-36
2023/05/09 08:43:19;;;;;;;12.55;9.98;;;18.90;99.90;;;;;;5081591;28;20031;-35
2023/05/09 08:45:52;;;;;;;14.25;10.32;;;18.90;99.90;;;;;;5082051;28;20031;-35
2023/05/09 08:48:18;;;;;;;9.77;8.77;;;18.90;99.90;;;;;;5081149;28;20022;-35
2023/05/09 08:50:44;;;;;;;10.57;9.48;;;19.00;99.90;;;;;;5081010;28;20031;-35
2023/05/09 08:53:13;;;;;;;10.75;9.68;;;19.00;99.90;;;;;;5081377;28;20044;-36
2023/05/09 08:55:39;;;;;;;10.23;9.00;;;18.90;99.90;;;;;;5087519;28;20458;-34
2023/05/09 08:58:06;;;;;;;10.50;9.18;;;18.90;99.90;;;;;;5100632;28;20451;-35
2023/05/09 09:00:32;;;;;;;11.23;10.07;;;18.90;99.90;;;;;;5080659;28;20064;-36
2023/05/09 09:03:04;;;;;;;10.93;9.77;;;18.90;99.90;;;;;;5082090;28;20031;-36
2023/05/09 09:05:32;;;;;;;10.25;9.07;;;18.90;99.90;;;;;;5080815;28;20119;-36
2023/05/09 09:07:58;;;;;;;9.82;8.82;;;18.80;99.90;;;;;;5081339;28;20056;-34
2023/05/09 09:10:28;;;;;;;9.95;8.50;;;18.70;99.90;;;;;;5080994;28;20039;-36
2023/05/09 09:12:56;;;;;;;9.93;8.48;;;18.70;99.90;;;;;;5082105;28;20039;-37
2023/05/09 09:15:25;;;;;;;9.00;8.10;;;18.50;99.90;;;;;;5080827;28;20023;-35
2023/05/09 09:17:55;;;;;;;9.23;8.23;;;18.40;99.90;;;;;;5081526;28;20503;-36
2023/05/09 09:20:21;;;;;;;8.20;7.20;;;18.40;99.90;;;;;;5081090;28;20020;-36
2023/05/09 09:22:51;;;;;;;8.25;7.45;;;18.30;99.90;;;;;;5080703;28;20027;-38
2023/05/09 09:25:16;;;;;;;9.32;7.68;;;18.30;99.90;;;;;;5081550;28;20024;-35
2023/05/09 09:27:42;;;;;;;8.80;7.90;;;18.20;99.90;;;;;;5081580;28;20036;-34
2023/05/09 09:30:11;;;;;;;7.25;6.55;;;18.20;99.90;;;;;;5080649;28;20361;-35
2023/05/09 09:32:38;;;;;;;7.03;6.32;;;18.10;99.90;;;;;;5080863;28;20568;-34
2023/05/09 09:35:05;;;;;;;6.80;6.10;;;18.10;99.90;;;;;;5081651;28;20024;-34
2023/05/09 09:37:36;;;;;;;8.80;6.97;;;18.10;99.90;;;;;;5080329;28;20024;-36
2023/05/09 09:40:03;;;;;;;7.38;6.68;;;18.10;99.90;;;;;;5081197;28;20030;-35
2023/05/09 09:42:48;;;;;;;7.50;6.65;;;18.10;99.90;;;;;;5080092;28;20012;-36
2023/05/09 09:45:18;;;;;;;9.23;6.85;;;18.20;99.90;;;;;;5081510;28;20055;-36
2023/05/09 09:47:46;;;;;;;7.70;5.95;;;18.10;99.90;;;;;;5081216;28;20024;-36
2023/05/09 09:50:23;;;;;;;7.75;6.57;;;18.20;99.90;;;;;;5081370;28;20097;-36
2023/05/09 09:52:51;;;;;;;6.40;5.80;;;18.20;99.90;;;;;;5071085;28;20063;-36
2023/05/09 09:55:20;;;;;;;5.65;5.13;;;18.20;99.90;;;;;;5081741;28;20164;-36
2023/05/09 09:57:47;;;;;;;4.97;4.57;;;18.30;99.90;;;;;;5080638;28;20019;-36
2023/05/09 10:00:15;;;;;;;5.93;5.28;;;18.30;99.90;;;;;;5081711;28;20032;-35
2023/05/09 10:02:48;;;;;;;5.40;4.88;;;18.30;99.90;;;;;;5080937;28;20028;-35
2023/05/09 10:05:25;;;;;;;5.72;5.05;;;18.40;99.90;;;;;;5080557;28;20032;-35
2023/05/09 10:08:00;;;;;;;6.20;4.93;;;18.50;99.90;;;;;;5081362;28;20012;-36
2023/05/09 10:10:33;;;;;;;6.32;5.03;;;18.60;99.90;;;;;;5080128;28;20905;-35
2023/05/09 10:13:06;;;;;;;4.85;4.45;;;18.90;99.90;;;;;;5080535;28;20051;-34
2023/05/09 10:15:33;;;;;;;5.43;4.93;;;19.00;99.90;;;;;;5079973;28;20020;-36
2023/05/09 10:18:02;;;;;;;4.57;4.18;;;19.10;99.90;;;;;;5079716;28;20028;-35
2023/05/09 10:20:29;;;;;;;4.40;4.00;;;19.10;99.90;;;;;;5079327;28;20032;-36
2023/05/09 10:23:01;;;;;;;4.45;4.05;;;19.20;99.90;;;;;;5079907;28;20024;-37
2023/05/09 10:25:47;;;;;;;4.35;3.95;;;19.30;99.90;;;;;;5079455;28;20031;-36
2023/05/09 10:28:21;;;;;;;4.85;3.63;;;19.30;99.90;;;;;;5079917;28;20163;-36
2023/05/09 10:30:56;;;;;;;4.35;3.95;;;19.30;99.90;;;;;;5080246;28;20073;-36
2023/05/09 10:33:37;;;;;;;5.60;5.10;;;19.20;99.90;;;;;;5079723;28;20043;-36
2023/05/09 10:36:03;;;;;;;4.22;3.83;;;19.20;99.90;;;;;;5081467;28;20020;-34
2023/05/09 10:38:30;;;;;;;4.57;4.03;;;19.10;99.90;;;;;;5078812;28;20039;-36
2023/05/09 10:40:56;;;;;;;4.28;3.88;;;19.20;99.90;;;;;;5079440;28;20132;-35
2023/05/09 10:43:24;;;;;;;3.88;3.58;;;19.20;99.90;;;;;;5080438;28;20028;-34
2023/05/09 10:45:50;;;;;;;4.68;4.28;;;19.20;99.90;;;;;;5079847;28;20028;-34
2023/05/09 10:48:17;;;;;;;4.35;3.95;;;19.10;99.90;;;;;;5081247;28;20020;-34
2023/05/09 10:50:43;;;;;;;4.03;3.72;;;19.10;99.90;;;;;;5080068;28;20837;-36
2023/05/09 10:53:12;;;;;;;4.55;4.13;;;19.10;99.90;;;;;;5079446;28;20047;-34
2023/05/09 10:55:54;;;;;;;4.60;3.72;;;19.00;99.90;;;;;;5080084;28;20020;-35
2023/05/09 10:58:28;;;;;;;4.78;4.38;;;19.00;99.90;;;;;;5079783;28;20524;-36
2023/05/09 11:01:02;;;;;;;6.95;5.75;;;18.90;99.90;;;;;;5079290;28;20059;-34
2023/05/09 11:03:48;;;;;;;5.68;4.88;;;18.70;99.90;;;;;;5079632;28;20069;-35
2023/05/09 11:06:40;;;;;;;6.40;5.43;;;18.60;99.90;;;;;;5080110;28;20024;-35
2023/05/09 11:09:36;;;;;;;5.45;4.95;;;18.50;99.90;;;;;;5080089;28;20034;-33
2023/05/09 11:12:09;;;;;;;5.47;4.97;;;18.40;99.90;;;;;;5060869;28;20033;-35
2023/05/09 11:14:34;;;;;;;9.90;6.30;;;18.40;99.90;;;;;;5076687;28;20108;-35
2023/05/09 11:17:03;;;;;;;6.85;5.53;;;18.30;99.90;;;;;;5081304;28;20020;-34
2023/05/09 11:19:46;;;;;;;5.00;4.50;;;18.20;99.90;;;;;;5079799;28;20024;-35
2023/05/09 11:22:20;;;;;;;5.55;4.90;;;18.20;99.90;;;;;;5060869;28;20040;-35
2023/05/09 11:24:48;;;;;;;5.53;5.03;;;18.10;99.90;;;;;;5080103;28;20024;-35
2023/05/09 11:27:19;;;;;;;4.90;4.40;;;18.00;99.90;;;;;;5083993;28;20433;-36
2023/05/09 11:29:55;;;;;;;3.30;3.00;;;17.90;99.90;;;;;;5082969;28;20368;-35
2023/05/09 11:32:26;;;;;;;4.65;4.25;;;17.90;99.90;;;;;;5076313;28;20066;-36
2023/05/09 11:35:14;;;;;;;4.43;4.03;;;17.90;99.90;;;;;;5077612;28;20028;-34
2023/05/09 11:38:04;;;;;;;5.88;3.88;;;17.90;99.90;;;;;;5062786;28;20468;-34
2023/05/09 11:40:31;;;;;;;4.10;3.10;;;17.90;99.90;;;;;;5081166;28;20028;-34
2023/05/09 11:42:58;;;;;;;4.82;3.13;;;17.90;99.90;;;;;;5082364;28;20575;-35
2023/05/09 11:45:31;;;;;;;3.53;3.22;;;17.80;99.90;;;;;;5082165;28;20529;-37
2023/05/09 11:47:59;;;;;;;3.50;3.20;;;17.80;99.90;;;;;;5063376;28;20098;-35
2023/05/09 11:50:25;;;;;;;3.78;3.30;;;17.80;99.90;;;;;;5076655;28;20024;-34
2023/05/09 11:52:52;;;;;;;3.83;3.42;;;17.70;99.90;;;;;;5082522;28;20572;-35
2023/05/09 11:55:24;;;;;;;5.82;3.47;;;17.80;99.90;;;;;;5083334;28;20028;-35
2023/05/09 11:57:53;;;;;;;3.58;3.20;;;17.70;99.90;;;;;;5082708;28;20124;-34
2023/05/09 12:00:23;;;;;;;3.42;3.13;;;17.70;99.90;;;;;;5082664;28;20059;-35
2023/05/09 12:02:49;;;;;;;3.30;3.00;;;17.70;99.90;;;;;;5083273;28;20028;-34
2023/05/09 12:05:20;;;;;;;3.30;3.00;;;17.70;99.90;;;;;;5082482;28;20073;-34
2023/05/09 12:07:47;;;;;;;4.28;3.10;;;17.90;99.90;;;;;;5083351;28;20020;-35
2023/05/09 12:10:14;;;;;;;3.80;3.38;;;18.00;99.90;;;;;;5082241;28;20050;-35
2023/05/09 12:12:44;;;;;;;3.95;3.08;;;18.00;99.90;;;;;;5081802;28;20519;-35
2023/05/09 12:15:12;;;;;;;4.18;3.00;;;18.00;99.90;;;;;;5082856;28;20077;-35
2023/05/09 12:17:37;;;;;;;3.60;3.30;;;18.10;99.90;;;;;;5073409;28;20765;-36
2023/05/09 12:20:04;;;;;;;3.00;2.67;;;18.00;99.90;;;;;;5082751;28;20039;-35
2023/05/09 12:22:30;;;;;;;4.70;3.30;;;18.00;99.90;;;;;;5082582;28;20028;-34
2023/05/09 12:25:00;;;;;;;5.22;3.80;;;18.00;99.90;;;;;;5081597;28;20119;-35
2023/05/09 12:27:27;;;;;;;3.22;2.92;;;17.90;99.90;;;;;;5080768;28;20077;-35
2023/05/09 12:29:53;;;;;;;2.70;2.50;;;18.00;99.90;;;;;;5082460;28;20032;-34
2023/05/09 12:32:19;;;;;;;2.45;2.25;;;18.00;99.90;;;;;;5080743;28;20032;-34
2023/05/09 12:34:47;;;;;;;2.88;2.42;;;18.00;99.90;;;;;;5081848;28;20047;-34
2023/05/09 12:37:17;;;;;;;2.95;2.60;;;18.00;99.90;;;;;;5082725;28;20051;-33